DABB/AAE METAR and TAF weather

Enter ICAO airport designator
Station Type Date Time Source
DABB METAR 2024/02/26 17:00 UTC NOAA

DABB 261700Z 20006KT 9999 FEW033 BKN200 16/09 Q1004


Station Type Date Time Source
DABB Decoded METAR 2024/02/26 17:00 UTC NOAA

Annaba, Algeria (DABB) 36-50N 007-49E 4M
Feb 26, 2024 - 12:00 PM EST / 2024.02.26 1700 UTC
Wind: from the SSW (200 degrees) at 7 MPH (6 KT):0
Visibility: greater than 7 mile(s):0
Sky conditions: mostly cloudy
Temperature: 60 F (16 C)
Dew Point: 48 F (9 C)
Relative Humidity: 63%
Pressure (altimeter): 29.65 in. Hg (1004 hPa)
ob: DABB 261700Z 20006KT 9999 FEW033 BKN200 16/09 Q1004
cycle: 17

Station Type Date Time Source
DABB TAF 2024/02/26 12:33 UTC NOAA